sensor_id;sensor_type;location;lat;lon;timestamp;temperature;humidity
6486;DHT22;3276;48.490;9.222;2022-10-16T00:00:34;15.70;33.40
6486;DHT22;3276;48.490;9.222;2022-10-16T00:03:01;15.70;33.00
6486;DHT22;3276;48.490;9.222;2022-10-16T00:05:27;15.70;33.70
6486;DHT22;3276;48.490;9.222;2022-10-16T00:07:52;15.70;33.20
6486;DHT22;3276;48.490;9.222;2022-10-16T00:10:18;15.60;33.50
6486;DHT22;3276;48.490;9.222;2022-10-16T00:12:44;15.60;33.20
6486;DHT22;3276;48.490;9.222;2022-10-16T00:15:09;15.50;33.70
6486;DHT22;3276;48.490;9.222;2022-10-16T00:17:35;15.50;34.00
6486;DHT22;3276;48.490;9.222;2022-10-16T00:20:01;15.50;34.00
6486;DHT22;3276;48.490;9.222;2022-10-16T00:22:26;15.50;34.40
6486;DHT22;3276;48.490;9.222;2022-10-16T00:24:52;15.50;34.00
6486;DHT22;3276;48.490;9.222;2022-10-16T00:27:17;15.50;33.90
6486;DHT22;3276;48.490;9.222;2022-10-16T00:29:43;15.50;33.80
6486;DHT22;3276;48.490;9.222;2022-10-16T00:32:08;15.40;34.50
6486;DHT22;3276;48.490;9.222;2022-10-16T00:34:34;15.40;34.30
6486;DHT22;3276;48.490;9.222;2022-10-16T00:37:00;15.30;34.50
6486;DHT22;3276;48.490;9.222;2022-10-16T00:39:26;15.20;34.70
6486;DHT22;3276;48.490;9.222;2022-10-16T00:41:51;15.20;35.50
6486;DHT22;3276;48.490;9.222;2022-10-16T00:44:43;15.20;36.00
6486;DHT22;3276;48.490;9.222;2022-10-16T00:47:11;15.10;35.50
6486;DHT22;3276;48.490;9.222;2022-10-16T00:49:38;15.10;35.50
6486;DHT22;3276;48.490;9.222;2022-10-16T00:52:04;15.20;35.60
6486;DHT22;3276;48.490;9.222;2022-10-16T00:54:32;15.10;35.20
6486;DHT22;3276;48.490;9.222;2022-10-16T00:57:01;15.10;35.50
6486;DHT22;3276;48.490;9.222;2022-10-16T01:01:57;15.20;35.10
6486;DHT22;3276;48.490;9.222;2022-10-16T01:04:25;15.10;35.50
6486;DHT22;3276;48.490;9.222;2022-10-16T01:13:00;15.20;34.80
6486;DHT22;3276;48.490;9.222;2022-10-16T01:19:10;15.30;33.70
6486;DHT22;3276;48.490;9.222;2022-10-16T01:21:41;15.40;33.40
6486;DHT22;3276;48.490;9.222;2022-10-16T01:24:48;15.40;33.30
6486;DHT22;3276;48.490;9.222;2022-10-16T01:27:21;15.40;33.50
6486;DHT22;3276;48.490;9.222;2022-10-16T01:30:06;15.50;33.00
6486;DHT22;3276;48.490;9.222;2022-10-16T01:32:41;15.50;32.30
6486;DHT22;3276;48.490;9.222;2022-10-16T01:38:16;15.60;31.80
6486;DHT22;3276;48.490;9.222;2022-10-16T01:40:46;15.60;31.40
6486;DHT22;3276;48.490;9.222;2022-10-16T01:43:17;15.70;30.90
6486;DHT22;3276;48.490;9.222;2022-10-16T01:45:44;15.70;31.90
6486;DHT22;3276;48.490;9.222;2022-10-16T01:48:14;15.60;31.80
6486;DHT22;3276;48.490;9.222;2022-10-16T01:50:44;15.70;30.80
6486;DHT22;3276;48.490;9.222;2022-10-16T01:53:12;15.70;30.70
6486;DHT22;3276;48.490;9.222;2022-10-16T01:55:42;15.70;31.00
6486;DHT22;3276;48.490;9.222;2022-10-16T01:58:12;15.70;31.10
6486;DHT22;3276;48.490;9.222;2022-10-16T02:00:42;15.70;30.80
6486;DHT22;3276;48.490;9.222;2022-10-16T02:03:11;15.70;30.70
6486;DHT22;3276;48.490;9.222;2022-10-16T02:05:41;15.80;30.80
6486;DHT22;3276;48.490;9.222;2022-10-16T02:08:08;15.80;30.00
6486;DHT22;3276;48.490;9.222;2022-10-16T02:10:35;15.90;30.10
6486;DHT22;3276;48.490;9.222;2022-10-16T02:15:31;16.00;29.80
6486;DHT22;3276;48.490;9.222;2022-10-16T02:17:57;16.00;29.70
6486;DHT22;3276;48.490;9.222;2022-10-16T02:20:27;16.00;29.30
6486;DHT22;3276;48.490;9.222;2022-10-16T02:22:54;16.10;29.80
6486;DHT22;3276;48.490;9.222;2022-10-16T02:25:29;16.00;30.10
6486;DHT22;3276;48.490;9.222;2022-10-16T02:28:03;16.00;29.90
6486;DHT22;3276;48.490;9.222;2022-10-16T02:30:41;16.00;30.30
6486;DHT22;3276;48.490;9.222;2022-10-16T02:33:10;16.00;31.00
6486;DHT22;3276;48.490;9.222;2022-10-16T02:35:37;16.00;31.00
6486;DHT22;3276;48.490;9.222;2022-10-16T02:38:04;16.00;31.00
6486;DHT22;3276;48.490;9.222;2022-10-16T02:40:30;16.00;30.50
6486;DHT22;3276;48.490;9.222;2022-10-16T02:42:56;16.00;30.70
6486;DHT22;3276;48.490;9.222;2022-10-16T02:45:22;16.10;30.50
6486;DHT22;3276;48.490;9.222;2022-10-16T02:47:48;16.00;30.00
6486;DHT22;3276;48.490;9.222;2022-10-16T02:50:14;16.00;30.40
6486;DHT22;3276;48.490;9.222;2022-10-16T02:52:40;16.00;30.60
6486;DHT22;3276;48.490;9.222;2022-10-16T02:55:06;16.00;30.30
6486;DHT22;3276;48.490;9.222;2022-10-16T02:57:32;16.00;30.50
6486;DHT22;3276;48.490;9.222;2022-10-16T02:59:58;16.00;30.20
6486;DHT22;3276;48.490;9.222;2022-10-16T03:02:23;16.00;30.70
6486;DHT22;3276;48.490;9.222;2022-10-16T03:04:49;16.00;30.30
6486;DHT22;3276;48.490;9.222;2022-10-16T03:07:15;16.00;30.00
6486;DHT22;3276;48.490;9.222;2022-10-16T03:09:40;16.10;30.30
6486;DHT22;3276;48.490;9.222;2022-10-16T03:12:06;16.00;30.30
6486;DHT22;3276;48.490;9.222;2022-10-16T03:14:32;15.90;30.80
6486;DHT22;3276;48.490;9.222;2022-10-16T03:16:58;15.90;30.90
6486;DHT22;3276;48.490;9.222;2022-10-16T03:19:24;15.90;30.90
6486;DHT22;3276;48.490;9.222;2022-10-16T03:21:49;15.90;30.60
6486;DHT22;3276;48.490;9.222;2022-10-16T03:24:15;15.90;30.00
6486;DHT22;3276;48.490;9.222;2022-10-16T03:26:41;15.90;30.90
6486;DHT22;3276;48.490;9.222;2022-10-16T03:29:06;15.80;30.80
6486;DHT22;3276;48.490;9.222;2022-10-16T03:31:32;15.90;30.90
6486;DHT22;3276;48.490;9.222;2022-10-16T03:33:57;15.80;30.50
6486;DHT22;3276;48.490;9.222;2022-10-16T03:36:23;15.90;30.90
6486;DHT22;3276;48.490;9.222;2022-10-16T03:38:49;15.80;30.80
6486;DHT22;3276;48.490;9.222;2022-10-16T03:41:14;15.80;30.80
6486;DHT22;3276;48.490;9.222;2022-10-16T03:43:40;15.80;30.80
6486;DHT22;3276;48.490;9.222;2022-10-16T03:46:05;15.90;30.90
6486;DHT22;3276;48.490;9.222;2022-10-16T03:48:31;15.90;30.40
6486;DHT22;3276;48.490;9.222;2022-10-16T03:50:57;15.80;30.80
6486;DHT22;3276;48.490;9.222;2022-10-16T03:53:23;15.80;30.80
6486;DHT22;3276;48.490;9.222;2022-10-16T03:55:49;15.80;30.80
6486;DHT22;3276;48.490;9.222;2022-10-16T03:58:14;15.70;30.90
6486;DHT22;3276;48.490;9.222;2022-10-16T04:00:46;15.70;31.50
6486;DHT22;3276;48.490;9.222;2022-10-16T04:03:13;15.60;33.50
6486;DHT22;3276;48.490;9.222;2022-10-16T04:05:38;15.60;33.60
6486;DHT22;3276;48.490;9.222;2022-10-16T04:08:04;15.50;34.00
6486;DHT22;3276;48.490;9.222;2022-10-16T04:10:30;15.50;34.20
6486;DHT22;3276;48.490;9.222;2022-10-16T04:12:56;15.30;35.60
6486;DHT22;3276;48.490;9.222;2022-10-16T04:15:24;15.30;35.70
6486;DHT22;3276;48.490;9.222;2022-10-16T04:17:51;15.30;35.70
6486;DHT22;3276;48.490;9.222;2022-10-16T04:20:17;15.30;35.60
6486;DHT22;3276;48.490;9.222;2022-10-16T04:22:43;15.20;36.10
6486;DHT22;3276;48.490;9.222;2022-10-16T04:25:09;15.10;37.00
6486;DHT22;3276;48.490;9.222;2022-10-16T04:27:35;15.10;36.80
6486;DHT22;3276;48.490;9.222;2022-10-16T04:30:00;15.10;37.60
6486;DHT22;3276;48.490;9.222;2022-10-16T04:32:26;15.20;37.30
6486;DHT22;3276;48.490;9.222;2022-10-16T04:34:52;15.20;36.60
6486;DHT22;3276;48.490;9.222;2022-10-16T04:37:18;15.10;37.30
6486;DHT22;3276;48.490;9.222;2022-10-16T04:39:44;15.10;37.60
6486;DHT22;3276;48.490;9.222;2022-10-16T04:42:10;15.10;37.90
6486;DHT22;3276;48.490;9.222;2022-10-16T04:44:36;15.00;38.30
6486;DHT22;3276;48.490;9.222;2022-10-16T04:47:01;15.00;39.00
6486;DHT22;3276;48.490;9.222;2022-10-16T04:49:27;15.00;39.10
6486;DHT22;3276;48.490;9.222;2022-10-16T04:51:53;15.00;39.40
6486;DHT22;3276;48.490;9.222;2022-10-16T04:54:18;15.00;38.80
6486;DHT22;3276;48.490;9.222;2022-10-16T04:56:44;15.00;39.10
6486;DHT22;3276;48.490;9.222;2022-10-16T04:59:14;14.90;39.90
6486;DHT22;3276;48.490;9.222;2022-10-16T05:01:40;14.90;39.60
6486;DHT22;3276;48.490;9.222;2022-10-16T05:04:05;14.90;39.80
6486;DHT22;3276;48.490;9.222;2022-10-16T05:06:31;14.90;40.00
6486;DHT22;3276;48.490;9.222;2022-10-16T05:08:57;14.90;40.50
6486;DHT22;3276;48.490;9.222;2022-10-16T05:11:22;14.90;40.50
6486;DHT22;3276;48.490;9.222;2022-10-16T05:13:48;14.80;40.40
6486;DHT22;3276;48.490;9.222;2022-10-16T05:16:13;14.80;40.50
6486;DHT22;3276;48.490;9.222;2022-10-16T05:18:39;14.80;40.60
6486;DHT22;3276;48.490;9.222;2022-10-16T05:21:05;14.80;41.40
6486;DHT22;3276;48.490;9.222;2022-10-16T05:23:31;14.80;40.80
6486;DHT22;3276;48.490;9.222;2022-10-16T05:25:58;14.80;41.00
6486;DHT22;3276;48.490;9.222;2022-10-16T05:28:28;14.70;41.00
6486;DHT22;3276;48.490;9.222;2022-10-16T05:30:54;14.50;43.10
6486;DHT22;3276;48.490;9.222;2022-10-16T05:33:21;14.50;43.30
6486;DHT22;3276;48.490;9.222;2022-10-16T05:35:47;14.50;42.90
6486;DHT22;3276;48.490;9.222;2022-10-16T05:38:13;14.50;43.20
6486;DHT22;3276;48.490;9.222;2022-10-16T05:40:38;14.50;43.10
6486;DHT22;3276;48.490;9.222;2022-10-16T05:43:04;14.50;42.90
6486;DHT22;3276;48.490;9.222;2022-10-16T05:45:30;14.40;43.40
6486;DHT22;3276;48.490;9.222;2022-10-16T05:47:55;14.20;45.00
6486;DHT22;3276;48.490;9.222;2022-10-16T05:50:21;14.20;45.00
6486;DHT22;3276;48.490;9.222;2022-10-16T05:52:47;14.20;45.50
6486;DHT22;3276;48.490;9.222;2022-10-16T05:55:12;14.10;45.50
6486;DHT22;3276;48.490;9.222;2022-10-16T05:57:38;14.20;46.00
6486;DHT22;3276;48.490;9.222;2022-10-16T06:00:04;14.20;46.40
6486;DHT22;3276;48.490;9.222;2022-10-16T06:02:30;14.30;45.60
6486;DHT22;3276;48.490;9.222;2022-10-16T06:04:56;14.40;45.90
6486;DHT22;3276;48.490;9.222;2022-10-16T06:07:22;14.60;45.40
6486;DHT22;3276;48.490;9.222;2022-10-16T06:09:52;14.70;45.00
6486;DHT22;3276;48.490;9.222;2022-10-16T06:12:18;14.70;44.50
6486;DHT22;3276;48.490;9.222;2022-10-16T06:14:45;14.80;43.90
6486;DHT22;3276;48.490;9.222;2022-10-16T06:17:12;14.90;42.80
6486;DHT22;3276;48.490;9.222;2022-10-16T06:19:38;15.00;43.20
6486;DHT22;3276;48.490;9.222;2022-10-16T06:22:03;15.00;42.30
6486;DHT22;3276;48.490;9.222;2022-10-16T06:24:29;15.20;41.30
6486;DHT22;3276;48.490;9.222;2022-10-16T06:26:55;15.30;40.90
6486;DHT22;3276;48.490;9.222;2022-10-16T06:29:20;15.40;38.20
6486;DHT22;3276;48.490;9.222;2022-10-16T06:31:46;15.30;38.70
6486;DHT22;3276;48.490;9.222;2022-10-16T06:34:11;15.30;39.70
6486;DHT22;3276;48.490;9.222;2022-10-16T06:36:38;15.10;39.30
6486;DHT22;3276;48.490;9.222;2022-10-16T06:39:05;15.00;40.60
6486;DHT22;3276;48.490;9.222;2022-10-16T06:41:32;15.20;40.00
6486;DHT22;3276;48.490;9.222;2022-10-16T06:43:58;15.20;39.60
6486;DHT22;3276;48.490;9.222;2022-10-16T06:46:25;15.40;40.50
6486;DHT22;3276;48.490;9.222;2022-10-16T06:48:52;15.50;39.10
6486;DHT22;3276;48.490;9.222;2022-10-16T06:51:19;15.70;37.90
6486;DHT22;3276;48.490;9.222;2022-10-16T06:53:47;16.00;37.20
6486;DHT22;3276;48.490;9.222;2022-10-16T06:56:21;16.10;35.90
6486;DHT22;3276;48.490;9.222;2022-10-16T06:58:47;16.40;36.60
6486;DHT22;3276;48.490;9.222;2022-10-16T07:01:14;16.50;33.50
6486;DHT22;3276;48.490;9.222;2022-10-16T07:03:40;16.70;32.70
6486;DHT22;3276;48.490;9.222;2022-10-16T07:06:09;16.80;31.30
6486;DHT22;3276;48.490;9.222;2022-10-16T07:08:37;16.90;31.80
6486;DHT22;3276;48.490;9.222;2022-10-16T07:11:07;16.90;31.80
6486;DHT22;3276;48.490;9.222;2022-10-16T07:13:37;16.90;31.70
6486;DHT22;3276;48.490;9.222;2022-10-16T07:16:18;16.90;31.80
6486;DHT22;3276;48.490;9.222;2022-10-16T07:18:44;17.00;31.90
6486;DHT22;3276;48.490;9.222;2022-10-16T07:21:16;17.00;31.90
6486;DHT22;3276;48.490;9.222;2022-10-16T07:23:43;17.10;30.80
6486;DHT22;3276;48.490;9.222;2022-10-16T07:26:09;17.30;30.70
6486;DHT22;3276;48.490;9.222;2022-10-16T07:28:36;17.40;30.00
6486;DHT22;3276;48.490;9.222;2022-10-16T07:31:03;17.60;28.90
6486;DHT22;3276;48.490;9.222;2022-10-16T07:33:30;17.70;29.30
6486;DHT22;3276;48.490;9.222;2022-10-16T07:35:55;17.80;27.80
6486;DHT22;3276;48.490;9.222;2022-10-16T07:38:22;18.00;26.90
6486;DHT22;3276;48.490;9.222;2022-10-16T07:40:48;18.00;26.90
6486;DHT22;3276;48.490;9.222;2022-10-16T07:43:14;18.00;27.80
6486;DHT22;3276;48.490;9.222;2022-10-16T07:45:49;18.10;27.80
6486;DHT22;3276;48.490;9.222;2022-10-16T07:48:16;18.20;27.40
6486;DHT22;3276;48.490;9.222;2022-10-16T07:50:42;18.30;26.80
6486;DHT22;3276;48.490;9.222;2022-10-16T07:53:08;18.40;26.70
6486;DHT22;3276;48.490;9.222;2022-10-16T07:55:34;18.50;25.30
6486;DHT22;3276;48.490;9.222;2022-10-16T07:58:00;18.70;24.40
6486;DHT22;3276;48.490;9.222;2022-10-16T08:00:25;18.80;24.40
6486;DHT22;3276;48.490;9.222;2022-10-16T08:02:51;19.10;23.80
6486;DHT22;3276;48.490;9.222;2022-10-16T08:05:16;19.10;23.80
6486;DHT22;3276;48.490;9.222;2022-10-16T08:07:42;19.40;24.80
6486;DHT22;3276;48.490;9.222;2022-10-16T08:10:16;19.50;23.30
6486;DHT22;3276;48.490;9.222;2022-10-16T08:12:42;19.70;22.50
6486;DHT22;3276;48.490;9.222;2022-10-16T08:15:08;19.80;22.60
6486;DHT22;3276;48.490;9.222;2022-10-16T08:17:34;20.00;21.30
6486;DHT22;3276;48.490;9.222;2022-10-16T08:19:59;20.00;20.90
6486;DHT22;3276;48.490;9.222;2022-10-16T08:22:25;20.00;21.40
6486;DHT22;3276;48.490;9.222;2022-10-16T08:24:50;19.90;21.50
6486;DHT22;3276;48.490;9.222;2022-10-16T08:27:16;20.10;21.00
6486;DHT22;3276;48.490;9.222;2022-10-16T08:29:41;20.20;21.40
6486;DHT22;3276;48.490;9.222;2022-10-16T08:32:07;20.10;21.00
6486;DHT22;3276;48.490;9.222;2022-10-16T08:34:32;20.00;20.90
6486;DHT22;3276;48.490;9.222;2022-10-16T08:36:58;20.10;21.00
6486;DHT22;3276;48.490;9.222;2022-10-16T08:39:23;20.20;20.50
6486;DHT22;3276;48.490;9.222;2022-10-16T08:42:04;20.10;21.00
6486;DHT22;3276;48.490;9.222;2022-10-16T08:50:11;21.30;18.90
6486;DHT22;3276;48.490;9.222;2022-10-16T08:52:40;21.70;18.10
6486;DHT22;3276;48.490;9.222;2022-10-16T08:55:19;21.90;17.80
6486;DHT22;3276;48.490;9.222;2022-10-16T08:57:51;22.10;17.40
6486;DHT22;3276;48.490;9.222;2022-10-16T09:00:16;22.30;18.00
6486;DHT22;3276;48.490;9.222;2022-10-16T09:16:01;23.20;15.50
6486;DHT22;3276;48.490;9.222;2022-10-16T09:19:01;23.40;14.20
6486;DHT22;3276;48.490;9.222;2022-10-16T09:21:35;23.50;13.50
6486;DHT22;3276;48.490;9.222;2022-10-16T09:24:17;23.50;12.80
6486;DHT22;3276;48.490;9.222;2022-10-16T09:26:44;23.50;12.20
6486;DHT22;3276;48.490;9.222;2022-10-16T09:29:18;23.30;11.40
6486;DHT22;3276;48.490;9.222;2022-10-16T09:31:45;23.10;12.70
6486;DHT22;3276;48.490;9.222;2022-10-16T09:34:45;23.10;12.50
6486;DHT22;3276;48.490;9.222;2022-10-16T09:37:14;22.90;13.10
6486;DHT22;3276;48.490;9.222;2022-10-16T09:39:46;22.80;11.80
6486;DHT22;3276;48.490;9.222;2022-10-16T09:42:38;22.80;12.30
6486;DHT22;3276;48.490;9.222;2022-10-16T09:45:04;22.90;12.10
6486;DHT22;3276;48.490;9.222;2022-10-16T09:47:31;23.00;12.20
6486;DHT22;3276;48.490;9.222;2022-10-16T09:50:02;23.00;11.90
6486;DHT22;3276;48.490;9.222;2022-10-16T09:52:32;23.10;11.60
6486;DHT22;3276;48.490;9.222;2022-10-16T09:55:11;23.20;11.70
6486;DHT22;3276;48.490;9.222;2022-10-16T09:57:48;23.20;10.70
6486;DHT22;3276;48.490;9.222;2022-10-16T10:00:16;23.20;11.20
6486;DHT22;3276;48.490;9.222;2022-10-16T10:02:41;23.10;11.10
6486;DHT22;3276;48.490;9.222;2022-10-16T10:05:18;23.20;11.00
6486;DHT22;3276;48.490;9.222;2022-10-16T10:08:00;23.20;11.30
6486;DHT22;3276;48.490;9.222;2022-10-16T10:10:30;23.10;10.70
6486;DHT22;3276;48.490;9.222;2022-10-16T10:12:57;23.20;11.10
6486;DHT22;3276;48.490;9.222;2022-10-16T10:15:27;23.20;10.90
6486;DHT22;3276;48.490;9.222;2022-10-16T10:17:55;23.10;10.70
6486;DHT22;3276;48.490;9.222;2022-10-16T10:20:39;23.00;10.60
6486;DHT22;3276;48.490;9.222;2022-10-16T10:23:23;22.90;10.50
6486;DHT22;3276;48.490;9.222;2022-10-16T10:26:20;22.80;10.70
6486;DHT22;3276;48.490;9.222;2022-10-16T10:28:55;22.70;10.90
6486;DHT22;3276;48.490;9.222;2022-10-16T10:37:20;23.10;9.70
6486;DHT22;3276;48.490;9.222;2022-10-16T10:42:53;23.60;9.50
6486;DHT22;3276;48.490;9.222;2022-10-16T10:45:42;23.70;8.00
6486;DHT22;3276;48.490;9.222;2022-10-16T10:50:52;23.60;9.10
6486;DHT22;3276;48.490;9.222;2022-10-16T10:53:31;23.60;8.00
6486;DHT22;3276;48.490;9.222;2022-10-16T10:58:46;23.40;8.00
6486;DHT22;3276;48.490;9.222;2022-10-16T11:01:17;23.30;8.50
6486;DHT22;3276;48.490;9.222;2022-10-16T11:04:06;23.30;7.50
6486;DHT22;3276;48.490;9.222;2022-10-16T11:09:30;23.10;9.10
6486;DHT22;3276;48.490;9.222;2022-10-16T11:12:08;23.10;9.70
6486;DHT22;3276;48.490;9.222;2022-10-16T11:14:55;23.20;7.70
6486;DHT22;3276;48.490;9.222;2022-10-16T11:17:44;23.20;8.20
6486;DHT22;3276;48.490;9.222;2022-10-16T11:20:32;23.10;8.00
6486;DHT22;3276;48.490;9.222;2022-10-16T11:23:16;23.20;5.40
6486;DHT22;3276;48.490;9.222;2022-10-16T11:25:43;23.20;4.80
6486;DHT22;3276;48.490;9.222;2022-10-16T11:28:37;23.20;4.10
6486;DHT22;3276;48.490;9.222;2022-10-16T11:32:06;23.30;5.60
6486;DHT22;3276;48.490;9.222;2022-10-16T11:36:41;23.20;5.80
6486;DHT22;3276;48.490;9.222;2022-10-16T11:41:51;23.10;5.70
6486;DHT22;3276;48.490;9.222;2022-10-16T11:49:51;23.10;5.00
6486;DHT22;3276;48.490;9.222;2022-10-16T11:52:28;23.10;5.10
6486;DHT22;3276;48.490;9.222;2022-10-16T11:55:47;23.10;4.60
6486;DHT22;3276;48.490;9.222;2022-10-16T12:06:43;23.60;4.30
6486;DHT22;3276;48.490;9.222;2022-10-16T12:09:19;23.60;4.10
6486;DHT22;3276;48.490;9.222;2022-10-16T12:11:46;23.50;4.20
6486;DHT22;3276;48.490;9.222;2022-10-16T12:16:57;23.60;4.40
6486;DHT22;3276;48.490;9.222;2022-10-16T12:19:26;23.60;5.40
6486;DHT22;3276;48.490;9.222;2022-10-16T12:21:55;23.70;5.20
6486;DHT22;3276;48.490;9.222;2022-10-16T12:24:39;23.80;4.30
6486;DHT22;3276;48.490;9.222;2022-10-16T12:27:25;23.70;4.50
6486;DHT22;3276;48.490;9.222;2022-10-16T12:29:57;23.80;4.20
6486;DHT22;3276;48.490;9.222;2022-10-16T12:32:33;23.80;3.60
6486;DHT22;3276;48.490;9.222;2022-10-16T12:35:03;23.90;4.20
6486;DHT22;3276;48.490;9.222;2022-10-16T12:37:34;23.90;4.50
6486;DHT22;3276;48.490;9.222;2022-10-16T12:42:50;24.00;5.10
6486;DHT22;3276;48.490;9.222;2022-10-16T12:47:51;24.10;4.90
6486;DHT22;3276;48.490;9.222;2022-10-16T12:50:36;24.00;4.50
6486;DHT22;3276;48.490;9.222;2022-10-16T12:53:16;24.00;5.20
6486;DHT22;3276;48.490;9.222;2022-10-16T12:56:04;23.90;5.60
6486;DHT22;3276;48.490;9.222;2022-10-16T13:01:24;23.90;3.90
6486;DHT22;3276;48.490;9.222;2022-10-16T13:06:54;24.00;5.70
6486;DHT22;3276;48.490;9.222;2022-10-16T13:09:32;24.20;4.10
6486;DHT22;3276;48.490;9.222;2022-10-16T13:15:01;24.30;3.60
6486;DHT22;3276;48.490;9.222;2022-10-16T13:23:11;24.10;3.40
6486;DHT22;3276;48.490;9.222;2022-10-16T13:28:31;24.20;3.80
6486;DHT22;3276;48.490;9.222;2022-10-16T13:30:59;24.20;3.80
6486;DHT22;3276;48.490;9.222;2022-10-16T13:33:39;24.20;4.10
6486;DHT22;3276;48.490;9.222;2022-10-16T13:36:06;24.30;5.10
6486;DHT22;3276;48.490;9.222;2022-10-16T13:38:34;24.30;4.70
6486;DHT22;3276;48.490;9.222;2022-10-16T13:41:05;24.20;4.60
6486;DHT22;3276;48.490;9.222;2022-10-16T13:46:14;24.10;4.30
6486;DHT22;3276;48.490;9.222;2022-10-16T13:48:41;24.10;4.50
6486;DHT22;3276;48.490;9.222;2022-10-16T13:51:13;24.00;3.90
6486;DHT22;3276;48.490;9.222;2022-10-16T13:53:39;23.90;4.20
6486;DHT22;3276;48.490;9.222;2022-10-16T13:56:11;23.90;4.90
6486;DHT22;3276;48.490;9.222;2022-10-16T13:58:37;24.00;4.90
6486;DHT22;3276;48.490;9.222;2022-10-16T14:01:05;24.10;4.00
6486;DHT22;3276;48.490;9.222;2022-10-16T14:03:32;24.20;4.00
6486;DHT22;3276;48.490;9.222;2022-10-16T14:06:03;24.20;3.70
6486;DHT22;3276;48.490;9.222;2022-10-16T14:08:31;23.90;4.70
6486;DHT22;3276;48.490;9.222;2022-10-16T14:10:59;23.80;4.10
6486;DHT22;3276;48.490;9.222;2022-10-16T14:13:37;23.80;4.00
6486;DHT22;3276;48.490;9.222;2022-10-16T14:16:09;23.80;5.20
6486;DHT22;3276;48.490;9.222;2022-10-16T14:18:37;23.80;4.90
6486;DHT22;3276;48.490;9.222;2022-10-16T14:21:11;23.70;5.00
6486;DHT22;3276;48.490;9.222;2022-10-16T14:23:39;23.70;4.80
6486;DHT22;3276;48.490;9.222;2022-10-16T14:26:17;23.80;4.80
6486;DHT22;3276;48.490;9.222;2022-10-16T14:28:45;24.00;5.20
6486;DHT22;3276;48.490;9.222;2022-10-16T14:33:52;24.00;3.40
6486;DHT22;3276;48.490;9.222;2022-10-16T14:36:18;24.10;3.50
6486;DHT22;3276;48.490;9.222;2022-10-16T14:41:24;24.10;3.60
6486;DHT22;3276;48.490;9.222;2022-10-16T14:43:55;24.10;3.90
6486;DHT22;3276;48.490;9.222;2022-10-16T14:46:44;24.10;4.40
6486;DHT22;3276;48.490;9.222;2022-10-16T14:51:35;24.00;4.90
6486;DHT22;3276;48.490;9.222;2022-10-16T14:54:00;23.90;5.60
6486;DHT22;3276;48.490;9.222;2022-10-16T14:56:34;23.90;5.60
6486;DHT22;3276;48.490;9.222;2022-10-16T14:59:14;23.80;5.60
6486;DHT22;3276;48.490;9.222;2022-10-16T15:01:43;23.70;5.50
6486;DHT22;3276;48.490;9.222;2022-10-16T15:04:11;23.70;5.60
6486;DHT22;3276;48.490;9.222;2022-10-16T15:06:37;23.80;6.00
6486;DHT22;3276;48.490;9.222;2022-10-16T15:09:03;23.80;6.60
6486;DHT22;3276;48.490;9.222;2022-10-16T15:11:29;23.80;6.90
6486;DHT22;3276;48.490;9.222;2022-10-16T15:13:54;23.70;7.10
6486;DHT22;3276;48.490;9.222;2022-10-16T15:16:20;23.60;7.60
6486;DHT22;3276;48.490;9.222;2022-10-16T15:18:45;23.50;8.50
6486;DHT22;3276;48.490;9.222;2022-10-16T15:21:23;23.40;9.40
6486;DHT22;3276;48.490;9.222;2022-10-16T15:23:49;23.40;9.90
6486;DHT22;3276;48.490;9.222;2022-10-16T15:26:16;23.20;9.90
6486;DHT22;3276;48.490;9.222;2022-10-16T15:28:41;23.10;10.40
6486;DHT22;3276;48.490;9.222;2022-10-16T15:31:07;23.10;10.40
6486;DHT22;3276;48.490;9.222;2022-10-16T15:33:32;23.00;10.60
6486;DHT22;3276;48.490;9.222;2022-10-16T15:36:00;22.90;11.00
6486;DHT22;3276;48.490;9.222;2022-10-16T15:38:27;22.90;10.90
6486;DHT22;3276;48.490;9.222;2022-10-16T15:40:53;22.90;11.20
6486;DHT22;3276;48.490;9.222;2022-10-16T15:43:19;22.80;11.20
6486;DHT22;3276;48.490;9.222;2022-10-16T15:45:58;22.80;11.30
6486;DHT22;3276;48.490;9.222;2022-10-16T15:48:24;22.80;11.50
6486;DHT22;3276;48.490;9.222;2022-10-16T15:50:50;22.80;11.40
6486;DHT22;3276;48.490;9.222;2022-10-16T15:53:15;22.70;11.30
6486;DHT22;3276;48.490;9.222;2022-10-16T15:55:41;22.60;11.60
6486;DHT22;3276;48.490;9.222;2022-10-16T15:58:06;22.60;11.80
6486;DHT22;3276;48.490;9.222;2022-10-16T16:00:32;22.40;12.30
6486;DHT22;3276;48.490;9.222;2022-10-16T16:02:57;22.40;12.10
6486;DHT22;3276;48.490;9.222;2022-10-16T16:05:23;22.30;12.10
6486;DHT22;3276;48.490;9.222;2022-10-16T16:07:49;22.30;12.30
6486;DHT22;3276;48.490;9.222;2022-10-16T16:10:15;22.20;12.20
6486;DHT22;3276;48.490;9.222;2022-10-16T16:12:41;22.00;12.70
6486;DHT22;3276;48.490;9.222;2022-10-16T16:15:08;21.80;13.30
6486;DHT22;3276;48.490;9.222;2022-10-16T16:17:35;21.70;13.30
6486;DHT22;3276;48.490;9.222;2022-10-16T16:20:02;21.60;13.20
6486;DHT22;3276;48.490;9.222;2022-10-16T16:22:27;21.50;13.40
6486;DHT22;3276;48.490;9.222;2022-10-16T16:24:53;21.40;14.00
6486;DHT22;3276;48.490;9.222;2022-10-16T16:27:19;21.30;14.30
6486;DHT22;3276;48.490;9.222;2022-10-16T16:29:45;21.10;14.90
6486;DHT22;3276;48.490;9.222;2022-10-16T16:32:11;20.90;15.20
6486;DHT22;3276;48.490;9.222;2022-10-16T16:34:36;20.80;15.40
6486;DHT22;3276;48.490;9.222;2022-10-16T16:37:02;20.70;15.80
6486;DHT22;3276;48.490;9.222;2022-10-16T16:39:28;20.50;16.00
6486;DHT22;3276;48.490;9.222;2022-10-16T16:41:55;20.40;16.30
6486;DHT22;3276;48.490;9.222;2022-10-16T16:44:21;20.20;16.70
6486;DHT22;3276;48.490;9.222;2022-10-16T16:46:47;20.10;16.60
6486;DHT22;3276;48.490;9.222;2022-10-16T16:49:13;20.00;16.60
6486;DHT22;3276;48.490;9.222;2022-10-16T16:51:40;19.90;16.50
6486;DHT22;3276;48.490;9.222;2022-10-16T16:54:07;19.80;16.40
6486;DHT22;3276;48.490;9.222;2022-10-16T16:56:34;19.70;16.30
6486;DHT22;3276;48.490;9.222;2022-10-16T16:59:00;19.60;16.70
6486;DHT22;3276;48.490;9.222;2022-10-16T17:01:26;19.50;17.30
6486;DHT22;3276;48.490;9.222;2022-10-16T17:03:54;19.40;17.30
6486;DHT22;3276;48.490;9.222;2022-10-16T17:06:21;19.30;18.20
6486;DHT22;3276;48.490;9.222;2022-10-16T17:08:48;19.10;18.70
6486;DHT22;3276;48.490;9.222;2022-10-16T17:11:21;19.10;19.10
6486;DHT22;3276;48.490;9.222;2022-10-16T17:13:47;19.00;19.90
6486;DHT22;3276;48.490;9.222;2022-10-16T17:16:13;19.00;20.20
6486;DHT22;3276;48.490;9.222;2022-10-16T17:18:39;18.80;20.30
6486;DHT22;3276;48.490;9.222;2022-10-16T17:21:06;18.80;21.00
6486;DHT22;3276;48.490;9.222;2022-10-16T17:23:34;18.70;21.40
6486;DHT22;3276;48.490;9.222;2022-10-16T17:26:10;18.60;21.70
6486;DHT22;3276;48.490;9.222;2022-10-16T17:28:36;18.60;21.30
6486;DHT22;3276;48.490;9.222;2022-10-16T17:31:17;18.50;21.60
6486;DHT22;3276;48.490;9.222;2022-10-16T17:33:43;18.40;22.00
6486;DHT22;3276;48.490;9.222;2022-10-16T17:36:09;18.30;22.40
6486;DHT22;3276;48.490;9.222;2022-10-16T17:38:36;18.20;22.50
6486;DHT22;3276;48.490;9.222;2022-10-16T17:41:22;18.20;22.60
6486;DHT22;3276;48.490;9.222;2022-10-16T17:43:49;18.10;23.00
6486;DHT22;3276;48.490;9.222;2022-10-16T17:46:16;18.00;23.10
6486;DHT22;3276;48.490;9.222;2022-10-16T17:48:46;18.00;23.00
6486;DHT22;3276;48.490;9.222;2022-10-16T17:51:14;18.00;23.30
6486;DHT22;3276;48.490;9.222;2022-10-16T17:53:40;18.00;23.80
6486;DHT22;3276;48.490;9.222;2022-10-16T17:56:09;18.00;23.10
6486;DHT22;3276;48.490;9.222;2022-10-16T17:58:35;17.90;23.30
6486;DHT22;3276;48.490;9.222;2022-10-16T18:01:01;17.90;23.80
6486;DHT22;3276;48.490;9.222;2022-10-16T18:03:27;17.90;23.80
6486;DHT22;3276;48.490;9.222;2022-10-16T18:05:54;17.90;23.80